Time;durP1;ratioP1;P1;durP2;ratioP2;P2;SDS_P1;SDS_P2;PMS_P1;PMS_P2;Temp;Humidity;BMP_temperature;BMP_pressure;BME280_temperature;BME280_humidity;BME280_pressure;Samples;Min_cycle;Max_cycle;Signal;HPM_P1;HPM_P2
2021/06/06 00:00:21;;;;;;;9.63;8.73;;;;;;;21.85;45.84;101412.56;694661;28;23500;-66
2021/06/06 00:00:44;;;;;;;9.63;8.73;;;;;;;21.82;46.00;101415.78;688553;28;134425;-65
2021/06/06 00:01:08;;;;;;;10.43;9.43;;;;;;;21.82;46.04;101418.53;691984;28;68762;-66
2021/06/06 00:01:35;;;;;;;10.23;9.23;;;;;;;21.82;46.17;101410.28;691634;28;90480;-65
2021/06/06 00:01:56;;;;;;;10.10;9.10;;;;;;;21.83;45.90;101411.13;688995;28;137840;-65
2021/06/06 00:02:17;;;;;;;9.93;8.93;;;;;;;21.84;45.95;101415.56;692298;28;22545;-65
2021/06/06 00:02:38;;;;;;;9.75;8.85;;;;;;;21.83;46.08;101413.88;694240;28;22415;-66
2021/06/06 00:03:00;;;;;;;9.88;9.02;;;;;;;21.81;46.08;101418.78;693177;28;23441;-66
2021/06/06 00:03:24;;;;;;;9.65;8.65;;;;;;;21.81;46.04;101416.03;692870;28;46358;-66
2021/06/06 00:03:48;;;;;;;9.80;8.88;;;;;;;21.81;45.92;101413.28;691861;28;69566;-66
2021/06/06 00:04:11;;;;;;;10.07;9.15;;;;;;;21.79;45.97;101410.75;691504;28;91836;-66
2021/06/06 00:04:32;;;;;;;9.98;9.05;;;;;;;21.79;46.02;101410.75;691028;28;92143;-66
2021/06/06 00:04:53;;;;;;;9.63;8.73;;;;;;;21.78;46.15;101406.34;692462;28;18115;-66
2021/06/06 00:05:15;;;;;;;9.60;8.75;;;;;;;21.80;46.05;101409.66;693826;28;23106;-65
2021/06/06 00:05:41;;;;;;;9.73;8.73;;;;;;;21.80;46.15;101417.09;691821;28;45419;-66
2021/06/06 00:06:05;;;;;;;9.52;8.63;;;;;;;21.78;46.07;101411.81;685651;28;138020;-66
2021/06/06 00:06:32;;;;;;;10.10;9.00;;;;;;;21.78;46.01;101409.91;688040;28;92185;-65
2021/06/06 00:06:54;;;;;;;10.02;8.90;;;;;;;21.77;46.12;101408.25;687969;28;138020;-66
2021/06/06 00:07:15;;;;;;;10.05;9.13;;;;;;;21.78;45.90;101407.16;692349;28;10760;-65
2021/06/06 00:07:36;;;;;;;9.82;8.90;;;;;;;21.77;45.94;101416.50;690377;28;20906;-65
2021/06/06 00:07:58;;;;;;;11.20;9.40;;;;;;;21.76;46.06;101411.25;692241;28;17449;-65
2021/06/06 00:08:20;;;;;;;9.82;8.98;;;;;;;21.77;46.11;101415.63;692963;28;46300;-66
2021/06/06 00:08:42;;;;;;;10.00;9.00;;;;;;;21.78;46.08;101411.81;693362;28;46696;-66
2021/06/06 00:09:11;;;;;;;10.02;9.02;;;;;;;21.77;45.95;101407.38;690589;28;2190;-66
2021/06/06 00:09:35;;;;;;;9.65;8.80;;;;;;;21.76;46.12;101408.50;691028;28;60224;-66
2021/06/06 00:09:57;;;;;;;10.20;8.95;;;;;;;21.76;46.08;101408.50;693584;28;913;-66
2021/06/06 00:10:18;;;;;;;10.20;8.75;;;;;;;21.75;46.09;101404.88;688207;28;989;-66
2021/06/06 00:10:40;;;;;;;9.68;8.82;;;;;;;21.74;46.06;101405.13;688008;28;22401;-67
2021/06/06 00:11:03;;;;;;;9.90;8.88;;;;;;;21.74;45.91;101405.97;689500;28;20961;-65
2021/06/06 00:11:29;;;;;;;11.07;8.63;;;;;;;21.74;46.09;101414.22;685425;28;79998;-66
2021/06/06 00:11:52;;;;;;;9.63;8.68;;;;;;;21.72;46.11;101408.13;683887;28;133921;-65
2021/06/06 00:12:13;;;;;;;9.77;8.88;;;;;;;21.71;46.12;101405.63;689340;28;46760;-66
2021/06/06 00:12:34;;;;;;;10.05;9.05;;;;;;;21.70;46.17;101413.00;692010;28;46929;-66
2021/06/06 00:12:56;;;;;;;10.68;9.02;;;;;;;21.69;46.10;101399.50;693399;28;20595;-66
2021/06/06 00:13:19;;;;;;;9.27;8.43;;;;;;;21.68;45.86;101409.66;691795;28;22498;-66
2021/06/06 00:13:41;;;;;;;9.73;8.70;;;;;;;21.68;45.86;101414.31;692097;28;70186;-66
2021/06/06 00:14:05;;;;;;;9.95;8.95;;;;;;;21.69;45.57;101410.50;691459;28;45108;-66
2021/06/06 00:14:29;;;;;;;9.48;8.40;;;;;;;21.68;45.77;101412.41;691365;28;92278;-66
2021/06/06 00:14:50;;;;;;;9.88;8.50;;;;;;;21.68;45.80;101409.66;690720;28;89844;-66
2021/06/06 00:15:14;;;;;;;9.52;8.57;;;;;;;21.68;45.92;101409.66;693008;28;22469;-66
2021/06/06 00:15:36;;;;;;;9.30;8.50;;;;;;;21.66;46.14;101405.47;689315;28;114662;-66
2021/06/06 00:15:57;;;;;;;9.60;8.70;;;;;;;21.68;46.03;101406.91;693055;28;22377;-65
2021/06/06 00:16:20;;;;;;;9.50;8.70;;;;;;;21.68;46.28;101412.41;693191;28;24348;-65
2021/06/06 00:16:45;;;;;;;9.38;8.57;;;;;;;21.71;46.12;101408.38;690812;28;92737;-66
2021/06/06 00:17:09;;;;;;;9.65;8.65;;;;;;;21.71;46.03;101411.94;689783;28;92321;-64
2021/06/06 00:17:30;;;;;;;10.82;8.73;;;;;;;21.69;46.14;101405.00;691267;28;90732;-66
2021/06/06 00:17:51;;;;;;;10.98;8.70;;;;;;;21.69;46.10;101414.09;693146;28;22379;-66
2021/06/06 00:18:12;;;;;;;9.18;8.38;;;;;;;21.68;46.14;101406.91;693585;28;21520;-66
2021/06/06 00:18:33;;;;;;;9.10;8.30;;;;;;;21.67;46.25;101407.16;693574;28;22372;-66
2021/06/06 00:18:54;;;;;;;8.93;8.13;;;;;;;21.64;46.40;101402.94;693319;28;23414;-65
2021/06/06 00:19:18;;;;;;;9.38;8.57;;;;;;;21.62;46.31;101407.84;692480;28;22381;-66
2021/06/06 00:19:39;;;;;;;9.68;8.68;;;;;;;21.63;46.30;101408.69;690294;28;90981;-66
2021/06/06 00:20:01;;;;;;;9.13;8.32;;;;;;;21.63;46.68;101405.94;693790;28;22484;-66
2021/06/06 00:20:26;;;;;;;9.30;8.50;;;;;;;21.62;46.33;101413.34;693782;28;23730;-65
2021/06/06 00:20:48;;;;;;;9.48;8.60;;;;;;;21.61;46.19;101403.41;689255;28;135929;-66
2021/06/06 00:21:09;;;;;;;9.32;8.32;;;;;;;21.60;46.11;101405.34;693372;28;22423;-66
2021/06/06 00:21:31;;;;;;;9.32;8.43;;;;;;;21.59;46.04;101408.31;692918;28;46329;-66
2021/06/06 00:21:53;;;;;;;9.07;8.18;;;;;;;21.58;46.30;101403.88;693155;28;23374;-66
2021/06/06 00:22:14;;;;;;;9.65;8.65;;;;;;;21.56;46.22;101415.09;691579;28;69230;-66
2021/06/06 00:22:35;;;;;;;10.35;8.85;;;;;;;21.56;46.28;101411.53;693712;28;13778;-66
2021/06/06 00:22:57;;;;;;;12.55;8.70;;;;;;;21.55;46.48;101407.97;693956;28;8522;-66
2021/06/06 00:23:18;;;;;;;9.90;8.90;;;;;;;21.53;46.52;101410.06;693177;28;20896;-66
2021/06/06 00:23:39;;;;;;;9.55;8.70;;;;;;;21.53;46.49;101406.50;693450;28;21537;-66
2021/06/06 00:24:01;;;;;;;9.63;8.73;;;;;;;21.53;46.42;101407.34;692354;28;46202;-66
2021/06/06 00:24:27;;;;;;;9.45;8.50;;;;;;;21.52;46.54;101404.81;694117;28;22377;-66
2021/06/06 00:24:48;;;;;;;9.75;8.77;;;;;;;21.52;46.50;101411.16;687239;28;159735;-65
2021/06/06 00:25:12;;;;;;;9.30;8.38;;;;;;;21.52;46.52;101416.66;694276;28;18993;-66
2021/06/06 00:25:35;;;;;;;9.25;8.32;;;;;;;21.52;46.41;101410.31;693378;28;38112;-65
2021/06/06 00:25:56;;;;;;;9.43;8.43;;;;;;;21.51;46.73;101401.25;692606;28;47296;-66
2021/06/06 00:26:18;;;;;;;8.77;7.97;;;;;;;21.50;46.80;101409.72;691803;28;45351;-66
2021/06/06 00:26:39;;;;;;;9.00;8.20;;;;;;;21.51;46.54;101409.47;694207;28;23474;-66
2021/06/06 00:27:00;;;;;;;8.68;7.88;;;;;;;21.51;46.59;101406.75;693936;28;12615;-65
2021/06/06 00:27:23;;;;;;;9.18;8.30;;;;;;;21.51;46.71;101408.66;693636;28;1936;-66
2021/06/06 00:27:44;;;;;;;9.23;8.32;;;;;;;21.50;46.63;101406.97;694454;28;964;-65
2021/06/06 00:28:06;;;;;;;8.95;8.05;;;;;;;21.50;46.54;101402.31;692691;28;35730;-66
2021/06/06 00:28:30;;;;;;;10.60;8.40;;;;;;;21.51;46.69;101409.47;694177;28;967;-66
2021/06/06 00:28:54;;;;;;;9.40;8.50;;;;;;;21.51;46.44;101411.41;691625;28;61823;-66
2021/06/06 00:29:16;;;;;;;8.95;8.13;;;;;;;21.51;46.54;101409.47;691767;28;26096;-66
2021/06/06 00:29:38;;;;;;;8.65;7.85;;;;;;;21.51;46.53;101408.66;694024;28;2032;-66
2021/06/06 00:30:00;;;;;;;8.90;8.00;;;;;;;21.50;46.40;101413.28;691273;28;1664;-66
2021/06/06 00:30:25;;;;;;;9.32;8.20;;;;;;;21.50;46.46;101410.53;691378;28;14411;-65
2021/06/06 00:30:46;;;;;;;9.57;8.30;;;;;;;21.48;46.50;101403.59;689362;28;44547;-65
2021/06/06 00:31:09;;;;;;;9.90;8.18;;;;;;;21.48;46.52;101409.91;690839;28;22276;-65
2021/06/06 00:31:31;;;;;;;9.00;8.07;;;;;;;21.48;46.42;101411.84;691887;28;63165;-65
2021/06/06 00:31:52;;;;;;;8.82;8.02;;;;;;;21.46;46.54;101414.81;693094;28;45062;-66
2021/06/06 00:32:13;;;;;;;9.55;8.65;;;;;;;21.44;46.76;101403.19;692333;28;43800;-66
2021/06/06 00:32:35;;;;;;;8.82;8.13;;;;;;;21.43;46.63;101407.88;693827;28;22404;-65
2021/06/06 00:32:56;;;;;;;11.20;8.40;;;;;;;21.43;46.89;101415.28;693897;28;22487;-66
2021/06/06 00:33:18;;;;;;;9.43;8.43;;;;;;;21.42;46.52;101410.84;692572;28;35480;-66
2021/06/06 00:33:40;;;;;;;10.38;8.27;;;;;;;21.42;47.06;101408.94;692576;28;46876;-66
2021/06/06 00:34:02;;;;;;;9.07;8.25;;;;;;;21.41;46.81;101407.28;688950;28;46332;-66
2021/06/06 00:34:24;;;;;;;10.65;8.82;;;;;;;21.41;47.04;101411.91;690536;28;22480;-66
2021/06/06 00:34:46;;;;;;;10.13;8.60;;;;;;;21.39;46.90;101403.94;687694;28;56882;-66
2021/06/06 00:35:10;;;;;;;9.80;8.75;;;;;;;21.41;46.82;101410.03;687678;28;46299;-66
2021/06/06 00:35:31;;;;;;;9.13;8.27;;;;;;;21.41;46.88;101409.16;682985;28;67604;-66
2021/06/06 00:35:53;;;;;;;9.07;8.20;;;;;;;21.39;46.86;101408.56;686008;28;44990;-66
2021/06/06 00:36:14;;;;;;;9.00;8.10;;;;;;;21.38;47.09;101404.16;688990;28;16211;-66
2021/06/06 00:36:35;;;;;;;9.10;8.23;;;;;;;21.36;47.07;101409.03;689832;28;23471;-66
2021/06/06 00:36:57;;;;;;;9.10;8.40;;;;;;;21.35;47.18;101413.69;686683;28;40231;-66
2021/06/06 00:37:20;;;;;;;9.23;8.40;;;;;;;21.34;47.12;101412.00;687185;28;1530;-66
2021/06/06 00:37:42;;;;;;;9.52;8.52;;;;;;;21.35;47.18;101412.88;689838;28;6852;-66
2021/06/06 00:38:04;;;;;;;8.98;8.13;;;;;;;21.33;47.31;101412.25;687384;28;42440;-65
2021/06/06 00:38:25;;;;;;;9.85;8.90;;;;;;;21.33;47.30;101415.00;689009;28;1142;-66
2021/06/06 00:38:47;;;;;;;9.63;8.73;;;;;;;21.31;47.30;101412.47;686873;28;45190;-66
2021/06/06 00:39:08;;;;;;;9.38;8.48;;;;;;;21.32;47.18;101413.34;689250;28;22468;-66
2021/06/06 00:39:33;;;;;;;9.25;8.40;;;;;;;21.30;47.21;101404.47;683456;28;70296;-66
2021/06/06 00:39:54;;;;;;;9.00;8.10;;;;;;;21.30;47.41;101407.22;686188;28;66130;-66
2021/06/06 00:40:22;;;;;;;9.48;8.55;;;;;;;21.29;47.40;101406.38;685332;28;69302;-66
2021/06/06 00:40:45;;;;;;;9.73;8.73;;;;;;;21.30;47.42;101412.72;687543;28;59308;-66
2021/06/06 00:41:08;;;;;;;9.45;8.55;;;;;;;21.28;47.43;101418.44;686980;28;64553;-65
2021/06/06 00:41:31;;;;;;;9.23;8.32;;;;;;;21.28;47.50;101415.69;686834;28;43501;-65
2021/06/06 00:41:55;;;;;;;9.45;8.60;;;;;;;21.29;47.40;101411.88;684893;28;138134;-66
2021/06/06 00:42:20;;;;;;;8.95;8.15;;;;;;;21.30;47.49;101415.47;687328;28;14371;-66
2021/06/06 00:42:54;;;;;;;10.45;8.63;;;;;;;21.29;47.45;101405.56;684576;28;60867;-65
2021/06/06 00:43:19;;;;;;;9.18;8.35;;;;;;;21.30;47.28;101408.06;681382;28;60943;-66
2021/06/06 00:43:41;;;;;;;9.35;8.48;;;;;;;21.29;47.35;101411.88;688180;28;904;-66
2021/06/06 00:44:03;;;;;;;9.32;8.40;;;;;;;21.29;47.20;101408.31;682748;28;39814;-65
2021/06/06 00:44:25;;;;;;;9.13;8.25;;;;;;;21.28;47.38;101410.19;684475;28;41232;-65
2021/06/06 00:44:50;;;;;;;9.27;8.38;;;;;;;21.28;47.36;101406.63;682620;28;115301;-65
2021/06/06 00:45:16;;;;;;;9.23;8.30;;;;;;;21.26;47.33;101409.59;686728;28;1240;-66
2021/06/06 00:45:39;;;;;;;10.57;8.85;;;;;;;21.26;47.49;101408.78;682787;28;62096;-66
2021/06/06 00:46:01;;;;;;;9.13;8.23;;;;;;;21.26;47.44;101414.25;682821;28;43549;-66
2021/06/06 00:46:25;;;;;;;9.60;8.60;;;;;;;21.24;47.40;101412.56;685333;28;23664;-66
2021/06/06 00:46:47;;;;;;;9.68;8.68;;;;;;;21.24;47.39;101409.81;685659;28;80118;-66
2021/06/06 00:47:10;;;;;;;9.25;8.38;;;;;;;21.23;47.47;101423.78;686259;28;88837;-66
2021/06/06 00:47:31;;;;;;;9.30;8.50;;;;;;;21.23;47.37;101410.88;689525;28;20806;-65
2021/06/06 00:47:53;;;;;;;8.93;8.10;;;;;;;21.22;47.41;101416.63;693029;28;997;-66
2021/06/06 00:48:15;;;;;;;9.25;8.20;;;;;;;21.20;47.39;101416.00;690096;28;46381;-66
2021/06/06 00:48:37;;;;;;;9.52;8.63;;;;;;;21.19;47.58;101422.56;687803;28;45263;-66
2021/06/06 00:48:58;;;;;;;9.50;8.60;;;;;;;21.17;47.65;101419.22;687493;28;44422;-65
2021/06/06 00:49:20;;;;;;;9.70;8.80;;;;;;;21.16;47.63;101414.78;682194;29;1563;-65
2021/06/06 00:49:42;;;;;;;8.90;8.10;;;;;;;21.16;47.47;101425.78;678909;29;47245;-65
2021/06/06 00:50:08;;;;;;;8.70;8.00;;;;;;;21.13;47.26;101416.09;680965;28;46394;-66
2021/06/06 00:50:35;;;;;;;8.83;8.10;;;;;;;21.14;47.60;101417.78;678238;28;137022;-66
2021/06/06 00:51:03;;;;;;;9.37;8.57;;;;;;;21.14;47.68;101423.25;679494;28;135087;-66
2021/06/06 00:51:28;;;;;;;9.70;8.70;;;;;;;21.12;47.83;101419.91;681767;28;138585;-66
2021/06/06 00:51:52;;;;;;;9.45;8.55;;;;;;;21.12;47.83;101421.84;682590;28;113577;-66
2021/06/06 00:52:17;;;;;;;9.80;8.85;;;;;;;21.12;47.63;101417.16;679783;28;126808;-66
2021/06/06 00:52:40;;;;;;;9.60;8.52;;;;;;;21.12;47.59;101421.84;684945;28;46218;-66
2021/06/06 00:53:04;;;;;;;9.10;8.18;;;;;;;21.12;47.91;101427.31;683639;28;62330;-66
2021/06/06 00:53:30;;;;;;;9.55;8.32;;;;;;;21.12;47.89;101414.44;688260;28;83870;-65
2021/06/06 00:53:54;;;;;;;9.95;8.27;;;;;;;21.12;47.86;101419.09;688341;28;124369;-65
2021/06/06 00:54:19;;;;;;;9.77;8.55;;;;;;;21.11;47.97;101417.41;689969;28;93235;-65
2021/06/06 00:54:44;;;;;;;10.30;8.68;;;;;;;21.10;47.85;101423.94;690186;28;92115;-66
2021/06/06 00:55:09;;;;;;;9.13;8.27;;;;;;;21.09;48.08;101420.38;685589;28;136200;-66
2021/06/06 00:55:36;;;;;;;9.35;8.45;;;;;;;21.10;47.60;101416.56;690146;28;61567;-65
2021/06/06 00:55:58;;;;;;;9.55;8.63;;;;;;;21.10;48.08;101421.22;690333;28;31945;-66
2021/06/06 00:56:22;;;;;;;9.80;8.77;;;;;;;21.10;47.82;101424.81;686561;28;69454;-66
2021/06/06 00:56:47;;;;;;;8.60;7.72;;;;;;;21.09;47.89;101417.63;683791;28;78440;-66
2021/06/06 00:57:13;;;;;;;9.00;8.18;;;;;;;21.09;47.84;101423.13;685100;28;87955;-65
2021/06/06 00:57:38;;;;;;;9.70;8.70;;;;;;;21.07;47.69;101422.53;680836;28;139751;-65
2021/06/06 00:58:04;;;;;;;9.15;8.30;;;;;;;21.06;47.92;101413.47;685531;28;92220;-65
2021/06/06 00:58:29;;;;;;;8.60;7.90;;;;;;;21.06;47.77;101423.59;687040;28;138284;-66
2021/06/06 00:58:53;;;;;;;9.93;7.80;;;;;;;21.04;47.97;101414.75;687409;28;46388;-66
2021/06/06 00:59:22;;;;;;;9.32;8.00;;;;;;;21.01;47.88;101418.78;681696;28;138575;-65
2021/06/06 00:59:46;;;;;;;9.05;8.15;;;;;;;21.01;47.90;101420.69;686199;28;108084;-66
2021/06/06 01:00:12;;;;;;;9.50;8.43;;;;;;;21.01;47.61;101418.78;684770;28;87911;-65
2021/06/06 01:00:41;;;;;;;8.95;8.15;;;;;;;21.00;47.84;101422.63;684045;28;160063;-66
2021/06/06 01:01:03;;;;;;;9.27;8.38;;;;;;;21.00;47.90;101419.88;689471;28;88867;-65
2021/06/06 01:01:26;;;;;;;8.80;8.00;;;;;;;21.00;47.88;101419.88;688798;28;92061;-65
2021/06/06 01:01:48;;;;;;;11.43;8.40;;;;;;;21.00;47.88;101419.00;687811;28;69198;-65
2021/06/06 01:02:10;;;;;;;10.10;8.30;;;;;;;20.99;47.95;101420.94;686737;28;45251;-65
2021/06/06 01:02:31;;;;;;;9.13;8.30;;;;;;;20.99;48.00;101420.09;682468;28;11916;-65
2021/06/06 01:02:53;;;;;;;8.65;7.85;;;;;;;20.98;48.10;101418.41;683829;28;21498;-66
2021/06/06 01:03:18;;;;;;;9.30;8.02;;;;;;;20.97;48.13;101414.84;680464;28;115321;-66
2021/06/06 01:03:40;;;;;;;9.20;8.40;;;;;;;20.99;47.87;101420.09;684324;28;45338;-66
2021/06/06 01:04:01;;;;;;;8.77;8.00;;;;;;;20.99;48.00;101417.34;682744;28;22130;-66
2021/06/06 01:04:24;;;;;;;9.55;8.50;;;;;;;21.00;48.00;101421.75;681002;28;67461;-65
2021/06/06 01:04:45;;;;;;;8.93;8.05;;;;;;;20.98;48.01;101415.66;684362;28;19474;-66
2021/06/06 01:05:10;;;;;;;9.55;7.93;;;;;;;20.98;48.10;101415.66;685951;28;26806;-66
2021/06/06 01:05:38;;;;;;;10.70;8.23;;;;;;;20.97;48.25;101417.59;681489;28;92300;-65
2021/06/06 01:06:07;;;;;;;9.02;8.13;;;;;;;20.95;48.19;101416.13;682656;28;137858;-66
2021/06/06 01:06:32;;;;;;;8.95;8.07;;;;;;;20.93;48.18;101419.09;686935;28;137391;-66
2021/06/06 01:06:54;;;;;;;9.13;8.30;;;;;;;20.93;48.21;101415.53;689237;28;130151;-66
2021/06/06 01:07:19;;;;;;;10.32;8.52;;;;;;;20.94;48.02;101419.94;689097;28;113900;-66
2021/06/06 01:07:40;;;;;;;9.13;8.20;;;;;;;20.93;48.24;101418.28;693912;28;21553;-65
2021/06/06 01:08:03;;;;;;;8.80;8.00;;;;;;;20.92;48.24;101419.31;692818;28;23540;-66
2021/06/06 01:08:27;;;;;;;8.98;8.18;;;;;;;20.92;48.40;101416.59;688950;28;71585;-65
2021/06/06 01:08:48;;;;;;;9.43;8.48;;;;;;;20.92;48.20;101413.84;686629;28;69516;-65
2021/06/06 01:09:17;;;;;;;9.30;8.40;;;;;;;20.92;48.25;101416.59;683671;28;115032;-65
2021/06/06 01:09:38;;;;;;;8.88;8.10;;;;;;;20.92;48.11;101416.59;684758;28;115309;-66
2021/06/06 01:10:03;;;;;;;8.98;8.10;;;;;;;20.91;48.13;101418.50;685121;28;45266;-65
2021/06/06 01:10:24;;;;;;;11.68;8.25;;;;;;;20.91;48.08;101417.63;684054;28;73199;-66
2021/06/06 01:10:53;;;;;;;9.13;8.18;;;;;;;20.89;48.08;101420.63;680242;28;92266;-66
2021/06/06 01:11:20;;;;;;;9.00;8.10;;;;;;;20.87;48.22;101417.28;681999;28;138356;-66
2021/06/06 01:11:46;;;;;;;8.63;7.93;;;;;;;20.84;48.50;101415.81;684537;28;124317;-66
2021/06/06 01:12:12;;;;;;;8.70;7.93;;;;;;;20.82;48.60;101412.47;683925;28;115066;-65
2021/06/06 01:12:44;;;;;;;9.57;8.57;;;;;;;20.82;48.56;101423.44;683093;28;158090;-65
2021/06/06 01:13:11;;;;;;;8.60;7.75;;;;;;;20.83;48.44;101419.66;684346;28;136470;-65
2021/06/06 01:13:43;;;;;;;10.43;8.65;;;;;;;20.82;48.43;101412.47;684575;28;137712;-65
2021/06/06 01:14:08;;;;;;;10.45;8.05;;;;;;;20.80;48.39;101411.88;685014;28;109275;-65
2021/06/06 01:14:36;;;;;;;9.30;8.32;;;;;;;20.81;48.50;101416.28;682213;28;60242;-66
2021/06/06 01:15:00;;;;;;;8.65;7.82;;;;;;;20.79;48.46;101418.41;680912;28;138990;-66
2021/06/06 01:15:32;;;;;;;10.50;8.43;;;;;;;20.79;48.69;101412.91;683088;28;137911;-66
2021/06/06 01:15:59;;;;;;;8.65;7.85;;;;;;;20.79;48.55;101415.66;683647;28;134584;-66
2021/06/06 01:16:26;;;;;;;8.85;8.05;;;;;;;20.79;48.60;101420.31;684166;28;136307;-66
2021/06/06 01:16:56;;;;;;;8.45;7.65;;;;;;;20.77;48.53;101417.81;686756;28;137773;-65
2021/06/06 01:17:20;;;;;;;8.95;7.90;;;;;;;20.76;48.71;101418.03;684882;28;115294;-66
2021/06/06 01:17:49;;;;;;;8.80;7.90;;;;;;;20.76;48.63;101418.88;688005;28;59080;-66
2021/06/06 01:18:20;;;;;;;8.85;7.80;;;;;;;20.74;48.68;101415.53;685032;28;137885;-66
2021/06/06 01:18:46;;;;;;;9.38;8.45;;;;;;;20.73;48.77;101418.50;688890;28;61400;-66
2021/06/06 01:19:12;;;;;;;8.65;7.90;;;;;;;20.70;48.58;101415.16;686095;28;137867;-65
2021/06/06 01:19:44;;;;;;;8.48;7.70;;;;;;;20.71;48.76;101421.47;688367;28;138096;-65
2021/06/06 01:20:11;;;;;;;8.65;7.82;;;;;;;20.73;48.73;101416.56;685774;28;137962;-65
2021/06/06 01:20:38;;;;;;;9.55;8.07;;;;;;;20.72;48.66;101420.41;684976;28;72542;-65
2021/06/06 01:21:09;;;;;;;8.85;7.65;;;;;;;20.73;48.73;101421.25;683656;28;130648;-65
2021/06/06 01:21:42;;;;;;;11.02;8.70;;;;;;;20.72;48.88;101417.66;684039;28;137469;-66
2021/06/06 01:22:13;;;;;;;8.48;7.68;;;;;;;20.72;48.60;101417.66;687707;28;93763;-66
2021/06/06 01:22:48;;;;;;;9.18;8.27;;;;;;;20.72;48.73;101417.66;689766;28;137738;-65
2021/06/06 01:23:25;;;;;;;9.00;8.23;;;;;;;20.70;48.76;101414.28;688076;28;136452;-65
2021/06/06 01:24:06;;;;;;;9.10;8.25;;;;;;;20.70;48.72;101417.03;681878;28;129214;-65
2021/06/06 01:24:32;;;;;;;14.93;8.35;;;;;;;20.68;48.95;101419.19;682269;28;137771;-65
2021/06/06 01:24:55;;;;;;;9.32;7.97;;;;;;;20.70;48.56;101423.38;688659;28;16135;-66
2021/06/06 01:25:20;;;;;;;8.77;7.97;;;;;;;20.70;48.97;101411.53;691887;28;14998;-66
2021/06/06 01:25:44;;;;;;;9.48;8.55;;;;;;;20.70;48.78;101417.03;687094;28;115999;-66
2021/06/06 01:26:11;;;;;;;9.43;8.43;;;;;;;20.70;48.72;101419.78;686898;28;138032;-65
2021/06/06 01:26:39;;;;;;;9.20;8.30;;;;;;;20.69;48.76;101410.72;686896;28;135023;-65
2021/06/06 01:27:04;;;;;;;9.00;8.07;;;;;;;20.70;48.81;101411.53;687304;28;113849;-65
2021/06/06 01:27:36;;;;;;;9.25;8.32;;;;;;;20.67;48.72;101410.13;687637;28;138811;-66
2021/06/06 01:28:03;;;;;;;8.70;7.90;;;;;;;20.67;48.80;101417.50;685528;28;136691;-66
2021/06/06 01:28:26;;;;;;;9.00;8.20;;;;;;;20.65;48.73;101416.88;684610;28;161729;-66
2021/06/06 01:28:55;;;;;;;8.85;8.10;;;;;;;20.65;48.68;101416.88;682568;28;136413;-66
2021/06/06 01:29:28;;;;;;;9.32;8.43;;;;;;;20.61;48.80;101421.97;682835;28;137705;-65
2021/06/06 01:29:57;;;;;;;8.65;7.90;;;;;;;20.60;49.14;101413.97;687139;28;99452;-65
2021/06/06 01:30:22;;;;;;;8.35;7.55;;;;;;;20.58;48.92;101413.34;686293;28;60684;-66
2021/06/06 01:30:47;;;;;;;8.45;7.65;;;;;;;20.61;48.95;101421.13;683473;28;101594;-66
2021/06/06 01:31:10;;;;;;;8.35;7.65;;;;;;;20.59;48.98;101424.09;685995;28;92350;-65
2021/06/06 01:31:35;;;;;;;8.73;8.02;;;;;;;20.56;49.00;101416.31;688218;28;69425;-66
2021/06/06 01:32:01;;;;;;;8.75;7.95;;;;;;;20.57;48.90;101412.50;686680;28;136454;-66
2021/06/06 01:32:26;;;;;;;9.23;8.32;;;;;;;20.57;49.09;101417.16;682957;28;116216;-65
2021/06/06 01:32:52;;;;;;;8.63;7.90;;;;;;;20.56;49.13;101423.72;685128;28;160233;-65
2021/06/06 01:33:17;;;;;;;8.63;7.82;;;;;;;20.55;48.99;101416.53;685267;28;113752;-66
2021/06/06 01:33:42;;;;;;;8.73;7.93;;;;;;;20.54;48.92;101418.44;682075;28;115132;-66
2021/06/06 01:34:06;;;;;;;10.43;8.55;;;;;;;20.54;49.04;101418.44;686615;28;86694;-66
2021/06/06 01:34:29;;;;;;;9.65;7.95;;;;;;;20.52;49.13;101406.88;687774;28;102539;-65
2021/06/06 01:34:56;;;;;;;9.27;7.90;;;;;;;20.52;49.19;101420.59;688846;28;91977;-66
2021/06/06 01:35:24;;;;;;;8.82;7.97;;;;;;;20.53;49.11;101425.84;689536;28;161653;-65
2021/06/06 01:35:52;;;;;;;9.30;8.13;;;;;;;20.53;49.13;101417.63;692177;28;128671;-65
2021/06/06 01:36:21;;;;;;;8.98;7.97;;;;;;;20.54;49.15;101415.69;690768;28;160683;-65
2021/06/06 01:36:47;;;;;;;8.88;8.00;;;;;;;20.52;49.30;101415.94;692564;28;136912;-66
2021/06/06 01:37:16;;;;;;;9.05;8.05;;;;;;;20.52;49.18;101415.94;693021;28;61384;-65
2021/06/06 01:37:42;;;;;;;9.25;8.32;;;;;;;20.51;49.30;101413.41;690476;28;116061;-66
2021/06/06 01:38:10;;;;;;;8.68;7.97;;;;;;;20.51;49.24;101418.91;683632;28;137647;-65
2021/06/06 01:38:35;;;;;;;9.00;8.20;;;;;;;20.51;49.40;101414.25;685243;28;91625;-66
2021/06/06 01:39:02;;;;;;;8.95;8.05;;;;;;;20.49;49.33;101410.91;679262;28;137939;-66
2021/06/06 01:39:32;;;;;;;9.90;7.82;;;;;;;20.48;49.38;101409.19;684293;28;59607;-67
2021/06/06 01:39:57;;;;;;;8.88;8.05;;;;;;;20.50;49.20;101412.59;685524;28;77155;-66
2021/06/06 01:40:21;;;;;;;9.00;8.10;;;;;;;20.49;49.38;101416.38;687434;28;114852;-65
2021/06/06 01:40:44;;;;;;;8.95;8.05;;;;;;;20.49;49.32;101415.56;688030;28;93156;-65
2021/06/06 01:41:08;;;;;;;9.02;8.15;;;;;;;20.49;49.37;101415.56;690597;28;69961;-65
2021/06/06 01:41:35;;;;;;;8.63;7.93;;;;;;;20.48;49.12;101422.09;691345;28;91996;-66
2021/06/06 01:42:02;;;;;;;9.50;8.60;;;;;;;20.47;49.31;101418.53;689670;28;136396;-65
2021/06/06 01:42:28;;;;;;;9.05;7.60;;;;;;;20.49;49.48;101415.56;685774;28;136239;-65
2021/06/06 01:42:52;;;;;;;8.52;7.60;;;;;;;20.47;49.38;101410.28;687402;28;115186;-66
2021/06/06 01:43:18;;;;;;;8.48;7.63;;;;;;;20.46;49.43;101413.25;687022;28;115943;-65
2021/06/06 01:43:42;;;;;;;8.13;7.43;;;;;;;20.46;49.37;101410.53;686182;28;92261;-66
2021/06/06 01:44:08;;;;;;;8.70;7.85;;;;;;;20.46;49.35;101418.75;681844;28;136440;-66
2021/06/06 01:44:32;;;;;;;8.52;7.63;;;;;;;20.45;49.35;101414.31;686279;28;92334;-66
2021/06/06 01:44:58;;;;;;;9.40;8.25;;;;;;;20.46;49.48;101416.00;685430;28;108203;-66
2021/06/06 01:45:23;;;;;;;9.20;8.30;;;;;;;20.45;49.34;101417.88;681647;28;130345;-66
2021/06/06 01:45:47;;;;;;;8.88;8.00;;;;;;;20.44;49.18;101416.22;688107;28;84741;-65
2021/06/06 01:46:12;;;;;;;9.05;7.97;;;;;;;20.43;49.38;101416.47;689942;28;38541;-66
2021/06/06 01:46:37;;;;;;;8.73;7.65;;;;;;;20.41;49.39;101411.19;689968;28;68920;-66
2021/06/06 01:47:05;;;;;;;8.88;8.07;;;;;;;20.38;49.64;101411.66;684177;28;107187;-65
2021/06/06 01:47:28;;;;;;;8.82;7.93;;;;;;;20.38;49.32;101408.06;682062;28;136395;-65
2021/06/06 01:47:51;;;;;;;8.40;7.63;;;;;;;20.37;49.42;101407.22;690506;28;19913;-66
2021/06/06 01:48:13;;;;;;;8.25;7.55;;;;;;;20.36;49.58;101411.03;691856;28;69490;-65
2021/06/06 01:48:39;;;;;;;9.07;8.27;;;;;;;20.37;49.51;101411.88;687006;28;138237;-66
2021/06/06 01:49:03;;;;;;;8.32;7.63;;;;;;;20.36;49.78;101416.53;689122;28;66877;-65
2021/06/06 01:49:26;;;;;;;8.50;7.70;;;;;;;20.37;49.69;101409.97;688978;28;68096;-65
2021/06/06 01:49:51;;;;;;;8.52;7.68;;;;;;;20.37;49.71;101415.44;687081;28;85009;-66
2021/06/06 01:50:20;;;;;;;8.53;7.73;;;;;;;20.37;49.63;101415.44;686484;28;136319;-66
2021/06/06 01:50:43;;;;;;;8.95;8.13;;;;;;;20.35;49.81;101420.31;686394;28;139107;-65
2021/06/06 01:51:08;;;;;;;8.50;7.70;;;;;;;20.33;49.60;101414.25;686714;28;69359;-66
2021/06/06 01:51:32;;;;;;;8.90;8.02;;;;;;;20.34;49.76;101410.41;682412;28;138619;-65
2021/06/06 01:51:57;;;;;;;8.93;8.05;;;;;;;20.33;49.60;101408.75;682975;28;71845;-65
2021/06/06 01:52:27;;;;;;;8.80;7.90;;;;;;;20.34;49.80;101418.63;681865;28;132584;-65
2021/06/06 01:52:49;;;;;;;8.60;7.80;;;;;;;20.33;49.86;101409.56;680930;28;128912;-65
2021/06/06 01:53:13;;;;;;;9.65;8.02;;;;;;;20.33;50.01;101414.25;683511;28;78763;-65
2021/06/06 01:53:36;;;;;;;9.93;7.72;;;;;;;20.31;49.90;101410.84;683494;28;93194;-65
2021/06/06 01:53:59;;;;;;;9.00;8.10;;;;;;;20.29;50.11;101408.34;687445;28;40576;-66